createdAt,value
2019-04-25T00:00:46.500Z,0.90
2019-04-25T00:01:28.661Z,1.00
2019-04-25T00:02:13.575Z,0.95
2019-04-25T00:02:48.084Z,1.22
2019-04-25T00:03:29.750Z,1.20
2019-04-25T00:04:04.733Z,1.00
2019-04-25T00:04:39.312Z,1.00
2019-04-25T00:05:14.774Z,0.80
2019-04-25T00:05:49.291Z,0.90
2019-04-25T00:06:25.673Z,0.93
2019-04-25T00:07:02.114Z,1.02
2019-04-25T00:07:37.170Z,1.05
2019-04-25T00:08:11.928Z,1.00
2019-04-25T00:08:47.294Z,1.25
2019-04-25T00:09:23.504Z,0.80
2019-04-25T00:09:58.332Z,1.00
2019-04-25T00:10:32.983Z,0.88
2019-04-25T00:11:07.862Z,0.90
2019-04-25T00:11:45.247Z,1.22
2019-04-25T00:12:19.219Z,1.20
2019-04-25T00:12:53.822Z,1.00
2019-04-25T00:13:28.769Z,1.25
2019-04-25T00:14:03.326Z,1.10
2019-04-25T00:14:38.073Z,1.10
2019-04-25T00:15:13.179Z,0.80
2019-04-25T00:15:48.108Z,1.15
2019-04-25T00:16:23.841Z,0.88
2019-04-25T00:16:58.403Z,1.05
2019-04-25T00:17:32.998Z,0.90
2019-04-25T00:18:07.523Z,1.27
2019-04-25T00:18:43.062Z,1.30
2019-04-25T00:19:18.027Z,1.17
2019-04-25T00:19:52.871Z,1.25
2019-04-25T00:20:29.254Z,1.22
2019-04-25T00:21:05.456Z,1.00
2019-04-25T00:21:44.576Z,0.85
2019-04-25T00:22:26.453Z,0.90
2019-04-25T00:23:02.594Z,2.50
2019-04-25T00:23:37.283Z,1.10
2019-04-25T00:24:16.378Z,0.82
2019-04-25T00:24:53.001Z,1.00
2019-04-25T00:25:29.224Z,1.05
2019-04-25T00:26:07.889Z,1.32
2019-04-25T00:26:45.145Z,1.00
2019-04-25T00:27:19.794Z,1.00
2019-04-25T00:27:54.375Z,1.00
2019-04-25T00:28:28.963Z,1.20
2019-04-25T00:29:04.035Z,1.05
2019-04-25T00:29:38.644Z,1.10
2019-04-25T00:30:13.442Z,0.80
2019-04-25T00:30:48.104Z,1.10
2019-04-25T00:31:22.697Z,1.00
2019-04-25T00:31:57.292Z,1.25
2019-04-25T00:32:31.966Z,1.42
2019-04-25T00:33:06.501Z,1.10
2019-04-25T00:33:43.350Z,1.07
2019-04-25T00:34:17.214Z,1.05
2019-04-25T00:34:51.881Z,1.10
2019-04-25T00:35:27.210Z,1.10
2019-04-25T00:36:03.810Z,1.40
2019-04-25T00:36:39.094Z,1.20
2019-04-25T00:37:13.989Z,0.98
2019-04-25T00:37:48.629Z,1.60
2019-04-25T00:38:23.183Z,0.88
2019-04-25T00:38:57.777Z,1.00
2019-04-25T00:39:32.362Z,0.95
2019-04-25T00:40:07.821Z,0.70
2019-04-25T00:40:43.528Z,0.95
2019-04-25T00:41:18.474Z,1.00
2019-04-25T00:41:53.715Z,0.88
2019-04-25T00:42:28.241Z,1.12
2019-04-25T00:43:02.827Z,2.05
2019-04-25T00:43:37.430Z,1.10
2019-04-25T00:44:12.172Z,1.00
2019-04-25T00:44:47.375Z,0.78
2019-04-25T00:45:22.307Z,0.95
2019-04-25T00:45:56.976Z,1.10
2019-04-25T00:46:32.235Z,0.98
2019-04-25T00:47:06.912Z,1.17
2019-04-25T00:47:43.352Z,1.15
2019-04-25T00:48:17.785Z,1.10
2019-04-25T00:48:52.727Z,1.62
2019-04-25T00:49:27.334Z,0.90
2019-04-25T00:50:02.390Z,1.40
2019-04-25T00:50:37.048Z,1.25
2019-04-25T00:51:11.849Z,1.15
2019-04-25T00:51:46.449Z,1.27
2019-04-25T00:52:21.152Z,1.52
2019-04-25T00:52:57.124Z,0.95
2019-04-25T00:53:32.395Z,1.15
2019-04-25T00:54:07.005Z,1.22
2019-04-25T00:54:43.051Z,1.40
2019-04-25T00:55:26.903Z,1.10
2019-04-25T00:55:53.943Z,1.55
2019-04-25T00:56:28.515Z,1.25
2019-04-25T00:57:03.095Z,1.30
2019-04-25T00:57:38.162Z,1.10
2019-04-25T00:58:26.139Z,1.17
2019-04-25T00:59:02.363Z,1.27
2019-04-25T00:59:54.129Z,1.55
2019-04-25T01:00:49.048Z,1.40
2019-04-25T01:01:37.052Z,1.07
2019-04-25T01:02:15.848Z,1.00
2019-04-25T01:02:55.463Z,1.00
2019-04-25T01:03:34.604Z,1.32
2019-04-25T01:04:09.121Z,1.25
2019-04-25T01:04:43.938Z,1.35
2019-04-25T01:05:19.131Z,1.20
2019-04-25T01:05:54.636Z,1.30
2019-04-25T01:06:29.267Z,1.20
2019-04-25T01:07:03.864Z,1.20
2019-04-25T01:07:38.376Z,1.67
2019-04-25T01:08:13.024Z,1.50
2019-04-25T01:08:47.798Z,1.37
2019-04-25T01:09:22.904Z,1.37
2019-04-25T01:09:57.495Z,1.30
2019-04-25T01:10:32.018Z,1.50
2019-04-25T01:11:06.667Z,1.02
2019-04-25T01:11:42.415Z,1.27
2019-04-25T01:12:18.029Z,1.30
2019-04-25T01:12:53.212Z,1.05
2019-04-25T01:13:27.886Z,1.30
2019-04-25T01:14:02.400Z,1.60
2019-04-25T01:14:36.978Z,1.30
2019-04-25T01:15:12.743Z,1.20
2019-04-25T01:15:47.323Z,1.22
2019-04-25T01:16:22.055Z,1.15
2019-04-25T01:16:56.613Z,1.10
2019-04-25T01:17:31.633Z,1.20
2019-04-25T01:18:06.713Z,1.20
2019-04-25T01:18:41.517Z,1.35
2019-04-25T01:19:16.028Z,1.60
2019-04-25T01:19:51.014Z,1.10
2019-04-25T01:20:25.599Z,1.90
2019-04-25T01:21:00.122Z,1.17
2019-04-25T01:21:34.711Z,1.60
2019-04-25T01:22:09.391Z,1.55
2019-04-25T01:22:44.129Z,1.75
2019-04-25T01:23:18.674Z,1.32
2019-04-25T01:23:54.498Z,1.02
2019-04-25T01:24:29.139Z,1.22
2019-04-25T01:25:05.359Z,1.47
2019-04-25T01:25:42.491Z,1.12
2019-04-25T01:26:16.290Z,1.15
2019-04-25T01:26:51.645Z,1.25
2019-04-25T01:27:26.249Z,2.98
2019-04-25T01:28:00.786Z,1.25
2019-04-25T01:28:35.533Z,1.20
2019-04-25T01:29:10.414Z,1.30
2019-04-25T01:29:46.231Z,1.35
2019-04-25T01:30:23.939Z,1.50
2019-04-25T01:30:58.834Z,1.10
2019-04-25T01:31:33.719Z,1.82
2019-04-25T01:32:09.783Z,1.05
2019-04-25T01:32:44.895Z,1.40
2019-04-25T01:33:19.543Z,1.57
2019-04-25T01:33:54.665Z,1.47
2019-04-25T01:34:34.472Z,1.20
2019-04-25T01:35:17.109Z,1.10
2019-04-25T01:35:59.294Z,1.52
2019-04-25T01:36:44.380Z,1.47
2019-04-25T01:37:20.582Z,1.27
2019-04-25T01:38:13.918Z,1.30
2019-04-25T01:38:53.387Z,1.35
2019-04-25T01:39:34.198Z,1.87
2019-04-25T01:40:25.339Z,1.40
2019-04-25T01:41:04.141Z,1.67
2019-04-25T01:41:47.581Z,1.62
2019-04-25T01:42:38.541Z,1.47
2019-04-25T01:43:26.393Z,1.82
2019-04-25T01:44:05.389Z,1.77
2019-04-25T01:44:41.654Z,1.27
2019-04-25T01:45:16.681Z,2.12
2019-04-25T01:45:51.811Z,1.40
2019-04-25T01:46:26.368Z,1.45
2019-04-25T01:47:01.124Z,1.30
2019-04-25T01:47:35.787Z,1.80
2019-04-25T01:48:10.445Z,1.37
2019-04-25T01:48:45.039Z,1.32
2019-04-25T01:49:19.724Z,1.70
2019-04-25T01:49:54.611Z,1.07
2019-04-25T01:50:30.081Z,1.42
2019-04-25T01:51:04.689Z,1.40
2019-04-25T01:51:39.340Z,1.40
2019-04-25T01:52:13.997Z,1.77
2019-04-25T01:52:48.959Z,1.80
2019-04-25T01:53:24.128Z,1.72
2019-04-25T01:53:58.810Z,1.45
2019-04-25T01:54:33.962Z,1.98
2019-04-25T01:55:08.934Z,1.10
2019-04-25T01:55:53.839Z,1.35
2019-04-25T01:56:19.924Z,1.50
2019-04-25T01:56:55.275Z,1.40
2019-04-25T01:57:30.711Z,1.40
2019-04-25T01:58:05.224Z,1.60
2019-04-25T01:58:40.877Z,1.40
2019-04-25T01:59:15.473Z,1.45
2019-04-25T01:59:51.355Z,1.50
2019-04-25T02:00:33.586Z,2.02
2019-04-25T02:01:08.176Z,1.67
2019-04-25T02:01:44.018Z,1.45
2019-04-25T02:02:20.383Z,1.50
2019-04-25T02:02:55.849Z,1.22
2019-04-25T02:03:31.127Z,1.52
2019-04-25T02:04:05.710Z,1.40
2019-04-25T02:04:40.219Z,0.98
2019-04-25T02:05:14.871Z,1.35
2019-04-25T02:05:50.661Z,1.50
2019-04-25T02:06:25.911Z,1.47
2019-04-25T02:07:00.554Z,1.20
2019-04-25T02:07:35.050Z,1.15
2019-04-25T02:08:09.608Z,1.25
2019-04-25T02:08:44.217Z,1.20
2019-04-25T02:09:19.157Z,1.10
2019-04-25T02:09:54.825Z,1.52
2019-04-25T02:10:29.726Z,1.40
2019-04-25T02:11:06.106Z,1.10
2019-04-25T02:11:45.276Z,1.40
2019-04-25T02:12:30.271Z,1.30
2019-04-25T02:13:06.488Z,1.10
2019-04-25T02:13:41.002Z,1.42
2019-04-25T02:14:15.536Z,1.55
2019-04-25T02:14:50.119Z,1.65
2019-04-25T02:15:26.347Z,1.20
2019-04-25T02:16:00.941Z,1.80
2019-04-25T02:16:35.522Z,1.42
2019-04-25T02:17:10.102Z,1.50
2019-04-25T02:17:44.613Z,1.37
2019-04-25T02:18:19.185Z,1.77
2019-04-25T02:18:55.112Z,1.40
2019-04-25T02:19:29.986Z,1.10
2019-04-25T02:20:06.227Z,1.62
2019-04-25T02:20:40.892Z,1.20
2019-04-25T02:21:15.404Z,1.35
2019-04-25T02:21:50.129Z,1.67
2019-04-25T02:22:24.636Z,1.47
2019-04-25T02:22:59.980Z,1.50
2019-04-25T02:23:34.960Z,1.30
2019-04-25T02:24:09.467Z,1.30
2019-04-25T02:24:44.353Z,1.52
2019-04-25T02:25:18.935Z,1.60
2019-04-25T02:26:06.103Z,1.30
2019-04-25T02:26:29.913Z,1.45
2019-04-25T02:27:04.753Z,1.20
2019-04-25T02:27:39.437Z,1.50
2019-04-25T02:28:15.856Z,1.75
2019-04-25T02:28:50.607Z,1.30
2019-04-25T02:29:25.221Z,1.40
2019-04-25T02:30:00.945Z,1.20
2019-04-25T02:30:35.854Z,1.47
2019-04-25T02:31:10.373Z,1.57
2019-04-25T02:31:45.248Z,1.37
2019-04-25T02:32:19.855Z,1.90
2019-04-25T02:32:58.382Z,1.60
2019-04-25T02:33:31.018Z,1.45
2019-04-25T02:34:08.374Z,1.52
2019-04-25T02:34:41.913Z,1.60
2019-04-25T02:35:16.676Z,1.50
2019-04-25T02:35:51.401Z,1.45
2019-04-25T02:36:26.087Z,1.50
2019-04-25T02:37:03.199Z,1.60
2019-04-25T02:37:36.888Z,1.72
2019-04-25T02:38:11.761Z,1.50
2019-04-25T02:38:46.350Z,1.47
2019-04-25T02:39:24.424Z,1.57
2019-04-25T02:40:00.519Z,1.60
2019-04-25T02:40:35.078Z,1.45
2019-04-25T02:41:09.683Z,1.55
2019-04-25T02:41:44.585Z,1.25
2019-04-25T02:42:19.239Z,2.10
2019-04-25T02:42:55.797Z,1.82
2019-04-25T02:43:30.320Z,0.98
2019-04-25T02:44:09.455Z,1.30
2019-04-25T02:44:44.535Z,1.20
2019-04-25T02:45:24.518Z,1.25
2019-04-25T02:46:02.216Z,1.40
2019-04-25T02:46:41.299Z,1.30
2019-04-25T02:47:17.578Z,1.20
2019-04-25T02:47:59.704Z,2.22
2019-04-25T02:48:44.140Z,1.55
2019-04-25T02:49:34.839Z,1.40
2019-04-25T02:50:17.043Z,1.30
2019-04-25T02:51:04.634Z,1.55
2019-04-25T02:51:45.094Z,1.60
2019-04-25T02:52:21.398Z,1.45
2019-04-25T02:52:58.631Z,1.20
2019-04-25T02:53:37.345Z,1.32
2019-04-25T02:54:13.826Z,1.40
2019-04-25T02:54:48.041Z,1.52
2019-04-25T02:55:34.092Z,1.72
2019-04-25T02:55:59.730Z,1.35
2019-04-25T02:56:38.904Z,1.40
2019-04-25T02:57:10.537Z,1.42
2019-04-25T02:57:45.394Z,1.80
2019-04-25T02:58:19.920Z,1.62
2019-04-25T02:58:54.521Z,1.80
2019-04-25T02:59:30.128Z,1.52
2019-04-25T03:00:08.835Z,1.37
2019-04-25T03:00:55.030Z,1.27
2019-04-25T03:01:23.523Z,1.87
2019-04-25T03:01:57.196Z,1.35
2019-04-25T03:02:34.298Z,1.30
2019-04-25T03:03:08.731Z,1.55
2019-04-25T03:03:44.999Z,1.40
2019-04-25T03:04:19.959Z,1.85
2019-04-25T03:04:54.812Z,1.47
2019-04-25T03:05:29.496Z,1.67
2019-04-25T03:06:07.583Z,1.10
2019-04-25T03:06:40.633Z,1.37
2019-04-25T03:07:17.472Z,1.30
2019-04-25T03:07:51.581Z,2.47
2019-04-25T03:08:26.219Z,1.35
2019-04-25T03:09:01.979Z,1.72
2019-04-25T03:09:36.599Z,1.55
2019-04-25T03:10:11.695Z,1.55
2019-04-25T03:10:47.213Z,1.80
2019-04-25T03:11:24.288Z,1.55
2019-04-25T03:11:58.756Z,1.57
2019-04-25T03:12:36.622Z,1.95
2019-04-25T03:13:11.989Z,1.60
2019-04-25T03:13:46.807Z,1.32
2019-04-25T03:14:21.383Z,1.60
2019-04-25T03:14:56.067Z,1.20
2019-04-25T03:15:30.614Z,1.40
2019-04-25T03:16:08.867Z,1.52
2019-04-25T03:16:41.797Z,1.75
2019-04-25T03:17:16.324Z,1.55
2019-04-25T03:17:51.166Z,2.25
2019-04-25T03:18:27.453Z,1.85
2019-04-25T03:19:19.847Z,1.62
2019-04-25T03:19:59.888Z,1.70
2019-04-25T03:20:39.127Z,1.30
2019-04-25T03:21:17.541Z,1.75
2019-04-25T03:21:55.004Z,1.27
2019-04-25T03:22:31.414Z,1.40
2019-04-25T03:23:10.826Z,1.45
2019-04-25T03:23:47.658Z,1.42
2019-04-25T03:24:24.976Z,1.87
2019-04-25T03:24:59.939Z,1.50
2019-04-25T03:25:34.857Z,1.30
2019-04-25T03:26:09.508Z,1.50
2019-04-25T03:26:44.362Z,1.35
2019-04-25T03:27:18.937Z,1.52
2019-04-25T03:27:54.091Z,1.85
2019-04-25T03:28:29.481Z,1.95
2019-04-25T03:29:05.258Z,1.70
2019-04-25T03:29:40.710Z,1.90
2019-04-25T03:30:17.839Z,1.55
2019-04-25T03:30:54.962Z,1.60
2019-04-25T03:31:28.170Z,1.70
2019-04-25T03:32:08.775Z,1.50
2019-04-25T03:32:39.013Z,1.67
2019-04-25T03:33:19.090Z,1.35
2019-04-25T03:33:49.894Z,1.40
2019-04-25T03:34:25.500Z,1.27
2019-04-25T03:35:01.177Z,1.45
2019-04-25T03:35:35.849Z,1.70
2019-04-25T03:36:10.472Z,2.20
2019-04-25T03:36:44.977Z,1.45
2019-04-25T03:37:19.536Z,1.70
2019-04-25T03:37:54.497Z,1.75
2019-04-25T03:38:29.092Z,1.85
2019-04-25T03:39:05.306Z,1.55
2019-04-25T03:39:39.859Z,2.00
2019-04-25T03:40:14.602Z,2.20
2019-04-25T03:40:49.115Z,1.75
2019-04-25T03:41:24.566Z,1.42
2019-04-25T03:41:59.219Z,1.42
2019-04-25T03:42:33.942Z,1.60
2019-04-25T03:43:14.893Z,1.65
2019-04-25T03:43:51.788Z,1.40
2019-04-25T03:44:27.960Z,1.37
2019-04-25T03:45:09.332Z,1.47
2019-04-25T03:45:45.316Z,1.45
2019-04-25T03:46:20.017Z,1.60
2019-04-25T03:46:54.602Z,1.80
2019-04-25T03:47:29.113Z,1.70
2019-04-25T03:48:05.322Z,1.85
2019-04-25T03:48:40.491Z,2.20
2019-04-25T03:49:17.286Z,1.60
2019-04-25T03:49:55.034Z,1.60
2019-04-25T03:50:28.079Z,2.30
2019-04-25T03:51:04.599Z,2.00
2019-04-25T03:51:38.921Z,1.60
2019-04-25T03:52:14.198Z,1.77
2019-04-25T03:52:48.818Z,1.45
2019-04-25T03:53:23.973Z,1.90
2019-04-25T03:53:58.611Z,1.70
2019-04-25T03:54:33.478Z,2.10
2019-04-25T03:55:08.667Z,2.10
2019-04-25T03:55:44.356Z,1.90
2019-04-25T03:56:19.526Z,2.20
2019-04-25T03:56:56.142Z,2.02
2019-04-25T03:57:30.454Z,1.25
2019-04-25T03:58:08.768Z,1.55
2019-04-25T03:58:41.691Z,2.02
2019-04-25T03:59:16.652Z,1.90
2019-04-25T03:59:51.421Z,1.62
2019-04-25T04:00:26.062Z,1.82
2019-04-25T04:01:00.746Z,1.80
2019-04-25T04:01:35.461Z,2.17
2019-04-25T04:02:10.941Z,1.82
2019-04-25T04:02:45.621Z,1.90
2019-04-25T04:03:20.355Z,1.55
2019-04-25T04:03:55.146Z,2.83
2019-04-25T04:04:29.949Z,1.70
2019-04-25T04:05:07.029Z,1.62
2019-04-25T04:05:43.798Z,1.45
2019-04-25T04:06:30.173Z,1.60
2019-04-25T04:07:07.407Z,1.82
2019-04-25T04:07:41.155Z,2.25
2019-04-25T04:08:15.899Z,1.67
2019-04-25T04:08:50.574Z,1.80
2019-04-25T04:09:25.241Z,1.60
2019-04-25T04:09:59.960Z,1.85
2019-04-25T04:10:34.683Z,1.67
2019-04-25T04:11:10.125Z,2.08
2019-04-25T04:11:48.106Z,1.60
2019-04-25T04:12:24.175Z,2.08
2019-04-25T04:12:58.897Z,1.67
2019-04-25T04:13:34.258Z,1.65
2019-04-25T04:14:08.974Z,1.45
2019-04-25T04:14:43.869Z,1.82
2019-04-25T04:15:19.621Z,1.80
2019-04-25T04:15:54.532Z,1.60
2019-04-25T04:16:30.668Z,1.80
2019-04-25T04:17:10.705Z,2.10
2019-04-25T04:17:49.836Z,1.30
2019-04-25T04:18:27.055Z,1.90
2019-04-25T04:19:01.958Z,2.45
2019-04-25T04:19:38.286Z,2.17
2019-04-25T04:20:15.861Z,1.15
2019-04-25T04:20:54.795Z,2.00
2019-04-25T04:21:36.889Z,1.50
2019-04-25T04:22:18.956Z,1.77
2019-04-25T04:22:55.424Z,1.55
2019-04-25T04:23:33.116Z,1.95
2019-04-25T04:24:13.844Z,1.60
2019-04-25T04:24:50.925Z,1.70
2019-04-25T04:25:25.628Z,1.40
2019-04-25T04:26:00.217Z,2.27
2019-04-25T04:26:35.288Z,2.30
2019-04-25T04:27:11.805Z,2.30
2019-04-25T04:27:46.694Z,2.40
2019-04-25T04:28:21.520Z,1.50
2019-04-25T04:28:56.292Z,1.87
2019-04-25T04:29:30.895Z,1.50
2019-04-25T04:30:08.062Z,1.55
2019-04-25T04:30:43.570Z,2.95
2019-04-25T04:31:19.133Z,1.50
2019-04-25T04:31:54.415Z,2.50
2019-04-25T04:32:29.061Z,1.77
2019-04-25T04:33:03.933Z,1.67
2019-04-25T04:33:39.339Z,1.37
2019-04-25T04:34:14.672Z,1.80
2019-04-25T04:34:50.170Z,1.57
2019-04-25T04:35:24.823Z,1.67
2019-04-25T04:35:59.591Z,1.70
2019-04-25T04:36:34.220Z,2.85
2019-04-25T04:37:09.042Z,3.30
2019-04-25T04:37:43.675Z,1.80
2019-04-25T04:38:18.412Z,1.85
2019-04-25T04:38:54.350Z,1.42
2019-04-25T04:39:29.052Z,1.45
2019-04-25T04:40:04.947Z,1.70
2019-04-25T04:40:39.522Z,1.70
2019-04-25T04:41:15.006Z,1.90
2019-04-25T04:41:50.203Z,2.33
2019-04-25T04:42:24.778Z,2.10
2019-04-25T04:42:59.288Z,2.08
2019-04-25T04:43:34.267Z,1.98
2019-04-25T04:44:09.948Z,2.62
2019-04-25T04:44:44.529Z,1.80
2019-04-25T04:45:19.034Z,2.17
2019-04-25T04:45:54.136Z,1.70
2019-04-25T04:46:28.740Z,1.62
2019-04-25T04:47:04.048Z,1.72
2019-04-25T04:47:38.743Z,1.47
2019-04-25T04:48:14.506Z,1.75
2019-04-25T04:48:49.694Z,2.05
2019-04-25T04:49:24.260Z,2.33
2019-04-25T04:49:59.029Z,1.87
2019-04-25T04:50:33.746Z,1.45
2019-04-25T04:51:09.033Z,1.70
2019-04-25T04:51:44.423Z,1.92
2019-04-25T04:52:18.960Z,1.70
2019-04-25T04:52:54.004Z,1.85
2019-04-25T04:53:28.700Z,1.50
2019-04-25T04:54:03.495Z,1.90
2019-04-25T04:54:38.067Z,2.00
2019-04-25T04:55:14.636Z,1.50
2019-04-25T04:55:48.778Z,1.47
2019-04-25T04:56:23.912Z,1.80
2019-04-25T04:56:59.506Z,1.70
2019-04-25T04:57:36.162Z,1.70
2019-04-25T04:58:11.125Z,1.70
2019-04-25T04:58:45.782Z,1.90
2019-04-25T04:59:20.393Z,1.80
2019-04-25T04:59:54.962Z,2.33
2019-04-25T05:00:29.623Z,2.12
2019-04-25T05:01:04.378Z,2.20
2019-04-25T05:01:40.603Z,1.90
2019-04-25T05:02:33.224Z,3.12
2019-04-25T05:03:18.847Z,2.12
2019-04-25T05:03:57.623Z,1.77
2019-04-25T05:04:49.888Z,2.17
2019-04-25T05:05:31.578Z,1.90
2019-04-25T05:06:14.872Z,1.80
2019-04-25T05:07:07.449Z,3.52
2019-04-25T05:07:43.969Z,1.70
2019-04-25T05:08:24.756Z,1.60
2019-04-25T05:09:01.202Z,1.32
2019-04-25T05:09:35.730Z,2.33
2019-04-25T05:10:11.349Z,1.55
2019-04-25T05:10:46.031Z,1.92
2019-04-25T05:11:20.644Z,2.35
2019-04-25T05:11:55.789Z,2.75
2019-04-25T05:12:30.373Z,1.75
2019-04-25T05:13:05.025Z,2.22
2019-04-25T05:13:39.622Z,2.00
2019-04-25T05:14:15.347Z,3.12
2019-04-25T05:14:50.900Z,2.05
2019-04-25T05:15:25.485Z,1.92
2019-04-25T05:16:00.014Z,1.52
2019-04-25T05:16:34.814Z,1.55
2019-04-25T05:17:09.382Z,2.08
2019-04-25T05:17:44.081Z,2.00
2019-04-25T05:18:31.532Z,1.62
2019-04-25T05:18:55.334Z,2.58
2019-04-25T05:19:29.953Z,1.67
2019-04-25T05:20:07.523Z,1.87
2019-04-25T05:20:42.140Z,2.00
2019-04-25T05:21:17.151Z,1.50
2019-04-25T05:21:51.700Z,1.62
2019-04-25T05:22:26.211Z,2.42
2019-04-25T05:23:00.729Z,1.20
2019-04-25T05:23:35.310Z,1.62
2019-04-25T05:24:09.892Z,1.72
2019-04-25T05:24:44.394Z,1.90
2019-04-25T05:25:19.142Z,1.40
2019-04-25T05:25:54.190Z,1.75
2019-04-25T05:26:30.204Z,1.67
2019-04-25T05:27:04.799Z,1.40
2019-04-25T05:27:56.787Z,1.40
2019-04-25T05:28:16.254Z,1.37
2019-04-25T05:28:51.779Z,1.40
2019-04-25T05:29:26.667Z,1.45
2019-04-25T05:30:01.386Z,1.30
2019-04-25T05:30:46.222Z,2.95
2019-04-25T05:31:24.010Z,1.42
2019-04-25T05:31:58.919Z,1.50
2019-04-25T05:32:34.262Z,1.25
2019-04-25T05:33:08.792Z,1.72
2019-04-25T05:33:43.626Z,1.20
2019-04-25T05:34:18.313Z,1.22
2019-04-25T05:34:53.316Z,1.95
2019-04-25T05:35:27.899Z,1.60
2019-04-25T05:36:03.745Z,1.60
2019-04-25T05:36:38.609Z,1.25
2019-04-25T05:37:14.388Z,1.40
2019-04-25T05:37:49.357Z,1.98
2019-04-25T05:38:24.996Z,1.70
2019-04-25T05:38:59.710Z,1.75
2019-04-25T05:39:34.235Z,1.75
2019-04-25T05:40:08.998Z,1.65
2019-04-25T05:40:51.250Z,1.90
2019-04-25T05:41:27.391Z,1.40
2019-04-25T05:42:12.242Z,1.50
2019-04-25T05:43:00.411Z,1.70
2019-04-25T05:43:34.913Z,2.25
2019-04-25T05:44:09.507Z,1.90
2019-04-25T05:44:44.085Z,6.85
2019-04-25T05:45:21.179Z,11.18
2019-04-25T05:45:55.800Z,7.50
2019-04-25T05:46:30.318Z,4.35
2019-04-25T05:47:04.902Z,5.45
2019-04-25T05:47:39.414Z,2.22
2019-04-25T05:48:15.239Z,2.33
2019-04-25T05:48:50.578Z,2.00
2019-04-25T05:49:26.098Z,3.72
2019-04-25T05:50:00.906Z,3.72
2019-04-25T05:50:35.422Z,1.90
2019-04-25T05:51:09.929Z,3.33
2019-04-25T05:51:44.443Z,2.45
2019-04-25T05:52:19.827Z,2.22
2019-04-25T05:52:54.441Z,1.50
2019-04-25T05:53:28.949Z,1.65
2019-04-25T05:54:04.178Z,1.85
2019-04-25T05:54:38.753Z,2.10
2019-04-25T05:55:15.883Z,2.85
2019-04-25T05:55:49.466Z,2.40
2019-04-25T05:56:26.778Z,1.92
2019-04-25T05:57:00.355Z,1.95
2019-04-25T05:57:45.488Z,3.00
2019-04-25T05:58:11.161Z,3.35
2019-04-25T05:58:45.742Z,2.67
2019-04-25T05:59:20.246Z,2.55
2019-04-25T05:59:54.756Z,2.77
2019-04-25T06:00:29.264Z,1.40
2019-04-25T06:01:03.771Z,1.70
2019-04-25T06:01:38.343Z,1.27
2019-04-25T06:02:13.957Z,2.05
2019-04-25T06:02:48.629Z,2.37
2019-04-25T06:03:24.819Z,2.08
2019-04-25T06:03:59.339Z,2.40
2019-04-25T06:04:33.844Z,2.40
2019-04-25T06:05:08.556Z,3.67
2019-04-25T06:05:43.458Z,2.10
2019-04-25T06:06:19.035Z,1.65
2019-04-25T06:06:55.244Z,2.77
2019-04-25T06:07:29.844Z,2.40
2019-04-25T06:08:04.551Z,1.90
2019-04-25T06:08:40.737Z,1.85
2019-04-25T06:09:28.750Z,1.70
2019-04-25T06:10:23.577Z,1.62
2019-04-25T06:11:00.113Z,2.10
2019-04-25T06:11:39.215Z,1.90
2019-04-25T06:12:15.372Z,1.25
2019-04-25T06:12:57.039Z,0.90
2019-04-25T06:13:33.410Z,1.70
2019-04-25T06:14:09.705Z,1.92
2019-04-25T06:14:44.207Z,1.40
2019-04-25T06:15:20.379Z,1.70
2019-04-25T06:15:56.525Z,1.42
2019-04-25T06:16:33.325Z,1.67
2019-04-25T06:17:09.631Z,1.35
2019-04-25T06:17:45.925Z,1.70
2019-04-25T06:18:28.274Z,1.45
2019-04-25T06:19:16.390Z,1.27
2019-04-25T06:19:51.119Z,1.17
2019-04-25T06:20:27.606Z,1.27
2019-04-25T06:21:03.113Z,1.72
2019-04-25T06:21:37.743Z,1.55
2019-04-25T06:22:15.178Z,2.77
2019-04-25T06:22:57.381Z,1.82
2019-04-25T06:23:46.030Z,1.20
2019-04-25T06:24:24.350Z,1.60
2019-04-25T06:25:00.240Z,1.50
2019-04-25T06:25:39.649Z,1.95
2019-04-25T06:26:22.911Z,1.47
2019-04-25T06:26:49.678Z,1.37
2019-04-25T06:27:26.918Z,1.10
2019-04-25T06:28:03.765Z,2.25
2019-04-25T06:28:49.416Z,3.37
2019-04-25T06:29:14.620Z,1.77
2019-04-25T06:29:58.079Z,1.67
2019-04-25T06:30:28.244Z,2.20
2019-04-25T06:31:04.442Z,1.50
2019-04-25T06:31:38.971Z,1.42
2019-04-25T06:32:14.258Z,1.25
2019-04-25T06:32:48.948Z,1.25
2019-04-25T06:33:24.626Z,1.20
2019-04-25T06:33:59.678Z,1.05
2019-04-25T06:34:36.312Z,1.27
2019-04-25T06:35:10.628Z,1.10
2019-04-25T06:35:45.206Z,1.22
2019-04-25T06:36:20.977Z,1.12
2019-04-25T06:36:55.558Z,2.02
2019-04-25T06:37:30.083Z,1.77
2019-04-25T06:38:04.642Z,1.00
2019-04-25T06:38:39.231Z,1.00
2019-04-25T06:39:14.190Z,1.17
2019-04-25T06:39:48.822Z,0.85
2019-04-25T06:40:24.203Z,1.10
2019-04-25T06:40:59.651Z,1.07
2019-04-25T06:41:35.294Z,1.30
2019-04-25T06:42:09.935Z,1.40
2019-04-25T06:42:46.617Z,1.00
2019-04-25T06:43:21.813Z,1.05
2019-04-25T06:43:58.661Z,1.00
2019-04-25T06:44:37.823Z,0.88
2019-04-25T06:45:15.836Z,0.95
2019-04-25T06:46:08.395Z,1.15
2019-04-25T06:46:44.806Z,1.22
2019-04-25T06:47:34.121Z,1.20
2019-04-25T06:48:10.377Z,0.90
2019-04-25T06:49:04.601Z,1.00
2019-04-25T06:49:40.704Z,1.00
2019-04-25T06:50:15.799Z,1.15
2019-04-25T06:50:50.479Z,1.05
2019-04-25T06:51:27.299Z,0.88
2019-04-25T06:52:04.145Z,1.57
2019-04-25T06:52:38.785Z,1.27
2019-04-25T06:53:13.660Z,0.98
2019-04-25T06:53:48.257Z,1.07
2019-04-25T06:54:25.277Z,0.80
2019-04-25T06:54:59.016Z,0.93
2019-04-25T06:55:34.308Z,1.02
2019-04-25T06:56:08.948Z,1.00
2019-04-25T06:56:43.562Z,1.00
2019-04-25T06:57:18.120Z,1.10
2019-04-25T06:57:54.006Z,1.37
2019-04-25T06:58:28.885Z,0.90
2019-04-25T06:59:03.549Z,0.88
2019-04-25T06:59:41.301Z,1.00
2019-04-25T07:00:16.969Z,0.90
2019-04-25T07:00:58.695Z,0.80
2019-04-25T07:01:28.633Z,1.10
2019-04-25T07:02:04.259Z,0.90
2019-04-25T07:02:38.895Z,0.70
2019-04-25T07:03:13.975Z,0.60
2019-04-25T07:03:49.682Z,0.95
2019-04-25T07:04:26.271Z,1.00
2019-04-25T07:05:00.397Z,1.15
2019-04-25T07:05:40.267Z,0.80
2019-04-25T07:06:12.944Z,2.22
2019-04-25T07:06:49.469Z,0.95
2019-04-25T07:07:25.633Z,0.90
2019-04-25T07:08:00.290Z,0.50
2019-04-25T07:08:35.365Z,1.00
2019-04-25T07:09:11.310Z,1.10
2019-04-25T07:09:45.851Z,1.07
2019-04-25T07:10:20.407Z,1.85
2019-04-25T07:10:55.329Z,0.65
2019-04-25T07:11:30.473Z,1.00
2019-04-25T07:12:05.089Z,0.80
2019-04-25T07:12:39.664Z,0.95
2019-04-25T07:13:14.513Z,0.85
2019-04-25T07:13:49.016Z,0.90
2019-04-25T07:14:25.458Z,0.78
2019-04-25T07:14:59.903Z,1.15
2019-04-25T07:15:35.296Z,1.60
2019-04-25T07:16:09.855Z,1.30
2019-04-25T07:16:44.422Z,1.05
2019-04-25T07:17:18.932Z,1.10
2019-04-25T07:17:53.998Z,0.93
2019-04-25T07:18:32.352Z,0.90
2019-04-25T07:19:05.459Z,1.15
2019-04-25T07:19:40.043Z,0.95
2019-04-25T07:20:15.168Z,0.70
2019-04-25T07:20:49.746Z,0.88
2019-04-25T07:21:25.152Z,0.80
2019-04-25T07:22:00.407Z,1.02
2019-04-25T07:22:36.185Z,0.95
2019-04-25T07:23:10.808Z,1.07
2019-04-25T07:23:46.225Z,0.88
2019-04-25T07:24:20.971Z,1.50
2019-04-25T07:24:55.547Z,0.98
2019-04-25T07:25:31.762Z,1.07
2019-04-25T07:26:08.162Z,1.10
2019-04-25T07:26:44.349Z,1.00
2019-04-25T07:27:24.759Z,0.80
2019-04-25T07:28:24.247Z,1.25
2019-04-25T07:28:55.489Z,0.85
2019-04-25T07:29:34.866Z,0.80
2019-04-25T07:30:45.461Z,1.32
2019-04-25T07:31:07.785Z,0.90
2019-04-25T07:31:46.710Z,1.15
2019-04-25T07:32:32.532Z,0.70
2019-04-25T07:33:13.801Z,0.70
2019-04-25T07:33:50.088Z,1.17
2019-04-25T07:34:27.379Z,0.72
2019-04-25T07:35:03.479Z,0.80
2019-04-25T07:35:38.199Z,0.95
2019-04-25T07:36:13.900Z,1.00
2019-04-25T07:36:48.896Z,0.90
2019-04-25T07:37:24.243Z,0.70
2019-04-25T07:37:58.870Z,0.72
2019-04-25T07:38:34.023Z,0.95
2019-04-25T07:39:10.609Z,0.93
2019-04-25T07:39:45.533Z,0.82
2019-04-25T07:40:20.585Z,1.10
2019-04-25T07:40:55.088Z,0.70
2019-04-25T07:41:29.593Z,1.10
2019-04-25T07:42:04.344Z,0.70
2019-04-25T07:42:39.241Z,1.20
2019-04-25T07:43:13.817Z,1.40
2019-04-25T07:43:48.321Z,0.80
2019-04-25T07:44:35.277Z,0.80
2019-04-25T07:44:59.177Z,1.10
2019-04-25T07:45:35.091Z,1.20
2019-04-25T07:46:10.673Z,1.00
2019-04-25T07:46:45.260Z,0.60
2019-04-25T07:47:19.879Z,1.00
2019-04-25T07:47:54.459Z,0.80
2019-04-25T07:48:30.007Z,0.70
2019-04-25T07:49:04.653Z,1.02
2019-04-25T07:49:39.150Z,1.05
2019-04-25T07:50:15.397Z,1.20
2019-04-25T07:50:50.030Z,2.10
2019-04-25T07:51:24.538Z,1.60
2019-04-25T07:51:59.049Z,1.72
2019-04-25T07:52:34.612Z,1.05
2019-04-25T07:53:09.769Z,1.20
2019-04-25T07:53:44.281Z,1.32
2019-04-25T07:54:18.864Z,0.70
2019-04-25T07:54:53.903Z,0.95
2019-04-25T07:55:29.196Z,0.80
2019-04-25T07:56:04.300Z,1.50
2019-04-25T07:56:38.905Z,1.30
2019-04-25T07:57:13.644Z,1.12
2019-04-25T07:57:48.183Z,1.82
2019-04-25T07:58:34.087Z,1.30
2019-04-25T07:58:58.894Z,1.32
2019-04-25T07:59:35.031Z,1.80
2019-04-25T08:00:13.223Z,0.88
2019-04-25T08:00:47.868Z,1.22
2019-04-25T08:01:23.589Z,0.98
2019-04-25T08:01:58.261Z,1.05